Free Soil, MI (49411)

8:22 PM EDT on May 29, 2015 (GMT -0400)
MesoWest | | Change Station
CLOSE
Current Station
Personal Weather Station
Location: Filer City, MI
Elevation: 659 ft
Nearby Weather Stations

Elev 659 ft 44.22 °N, 86.31 °W | Updated 37 minutes ago

Overcast
Overcast
74 °F
Feels Like 74 °F
N
4
Wind Variable Wind from West
Gusts 13.0 mph

Today
High -- | Low -- °F
--% Chance of Precip.
Yesterday
High -- | Low -- °F
Precip. -- in
6:06 AM 9:18 PM
Waxing Gibbous, 87% visible
Pressure 29.91 in
Visibility 9.0 miles
Clouds Scattered Clouds 3500 ft
Scattered Clouds 4100 ft
Mostly Cloudy 5500 ft
Heat Index 74 °F
Dew Point 69 °F
Humidity 84%
Rainfall in
Snow Depth Not available.
UV 0 out of 12
Pollen 7.00 out of 12
Air Quality Not available.
Flu Activity Sporadic
METAR KMBL 300015Z AUTO 27005KT 9SM SCT035 SCT041 BKN055 17/13 A2991 RMK AO1

More Conditions Fewer Conditions

Pressure 29.91 in
Visibility 9.0 miles
Clouds Scattered Clouds 3500 ft
Scattered Clouds 4100 ft
Mostly Cloudy 5500 ft
Heat Index 74 °F
Dew Point 69 °F
Humidity 84%
Rainfall in
Snow Depth Not available.
UV 0 out of 12
Pollen 7.00 out of 12
Air Quality Not available.
Flu Activity Sporadic
METAR KMBL 300015Z AUTO 27005KT 9SM SCT035 SCT041 BKN055 17/13 A2991 RMK AO1

More Conditions Fewer Conditions

10-Day Weather Forecast

Almanac

Astronomy

May. 29, 2015 Rise Set
Actual Time
Civil Twilight
Nautical Twilight
Astronomical Twilight
Moon
Length of Visible Light
Length of Day
Tomorrow will be .
, % of the Moon is Illuminated

Today's Extremes

State Highs State Lows

Community

WunderPhotos

Upload Photos

1,825,411 photos uploaded!

WunderBlogs® & News

Nearby

Air Quality

  Air Quality AQ Index Pollutant
Not available.

Snow Depth

Station Depth Elevation

Earthquake Activity

City Distance Mag. Time & Date
Minimum magnitude displayed is 2.5.

Coastal Water Temperatures

Place Temperature

Stations

Nearby Weather Stations

Station Location Temp. Windchill Dew Point Humidity Wind Precip. Elev Updated Type